Mereta, TX

1:58 PM CDT on July 07, 2015 (GMT -0500)
Southland | | Change Station
CLOSE
Current Station
Personal Weather Station
Location: San Angelo, TX
Elevation: 1936 ft
Nearby Weather Stations
Active Advisory: Special Statement Active Notice: Record Report

Elev 1936 ft 31.41 °N, 100.49 °W | Updated 19 seconds ago

Overcast
Overcast
77.3 °F
Feels Like 79 °F
N
5.0
Wind Variable Wind from NE
Gusts 9.0 mph

Today
High -- | Low -- °F
--% Chance of Precip.
Yesterday
High -- | Low -- °F
Precip. -- in
6:42 AM 8:48 PM
Waning Gibbous, 62% visible
Pressure 29.88 in
Visibility 10.0 miles
Clouds Scattered Clouds 2800 ft
Mostly Cloudy 3700 ft
Overcast 6000 ft
Heat Index 79 °F
Dew Point 72 °F
Humidity 84%
Rainfall 0.17 in
Snow Depth Not available.
UV 4 out of 12
Pollen .50 out of 12
Air Quality Not available.
Flu Activity Not available.
METAR KSJT 071851Z 16014G19KT 10SM SCT028 BKN037 OVC060 29/22 A2995 RMK AO2 LTG DSNT N AND NW SLP116 T02890217

More Conditions Fewer Conditions

Pressure 29.88 in
Visibility 10.0 miles
Clouds Scattered Clouds 2800 ft
Mostly Cloudy 3700 ft
Overcast 6000 ft
Heat Index 79 °F
Dew Point 72 °F
Humidity 84%
Rainfall 0.17 in
Snow Depth Not available.
UV 4 out of 12
Pollen .50 out of 12
Air Quality Not available.
Flu Activity Not available.
METAR KSJT 071851Z 16014G19KT 10SM SCT028 BKN037 OVC060 29/22 A2995 RMK AO2 LTG DSNT N AND NW SLP116 T02890217

More Conditions Fewer Conditions

10-Day Weather Forecast

×

Almanac

Astronomy

Jul. 07, 2015 Rise Set
Actual Time
Civil Twilight
Nautical Twilight
Astronomical Twilight
Moon
Length of Visible Light
Length of Day
Tomorrow will be .
, % of the Moon is Illuminated

Today's Extremes

State Highs State Lows

Community

WunderPhotos

Upload Photos

1,835,868 photos uploaded!

WunderBlogs® & News

Nearby

Air Quality

  Air Quality AQ Index Pollutant
Not available.

Snow Depth

Station Depth Elevation

Earthquake Activity

City Distance Mag. Time & Date
Minimum magnitude displayed is 2.5.

Coastal Water Temperatures

Place Temperature

Stations

Nearby Weather Stations

Station Location Temp. Windchill Dew Point Humidity Wind Precip. Elev Updated Type
                   
Special Statement
Statement as of 1:09 PM CDT on July 07, 2015

... Tropical funnels will be possible today...

Tropical funnels differ from the typical Spring Time
tornadoes and rarely reach the ground. On the rare occasion that
they do reach the ground gusty winds to around 60 to 70 mph are
possible. Tropical funnels are usually brief... however some times
their occurrence can be numerous for a few hours.